sensor_id;sensor_type;location;lat;lon;timestamp;temperature;humidity
46488;DHT22;32202;48.780;9.204;2023-05-07T00:00:53;16.30;94.20
46488;DHT22;32202;48.780;9.204;2023-05-07T00:03:20;16.30;94.20
46488;DHT22;32202;48.780;9.204;2023-05-07T00:05:46;16.20;94.40
46488;DHT22;32202;48.780;9.204;2023-05-07T00:08:12;16.20;94.70
46488;DHT22;32202;48.780;9.204;2023-05-07T00:10:37;16.10;95.10
46488;DHT22;32202;48.780;9.204;2023-05-07T00:13:03;16.10;95.50
46488;DHT22;32202;48.780;9.204;2023-05-07T00:15:28;16.10;95.80
46488;DHT22;32202;48.780;9.204;2023-05-07T00:17:54;16.00;96.00
46488;DHT22;32202;48.780;9.204;2023-05-07T00:20:19;16.00;96.40
46488;DHT22;32202;48.780;9.204;2023-05-07T00:22:45;15.90;96.70
46488;DHT22;32202;48.780;9.204;2023-05-07T00:25:10;15.90;97.00
46488;DHT22;32202;48.780;9.204;2023-05-07T00:27:36;15.90;97.30
46488;DHT22;32202;48.780;9.204;2023-05-07T00:30:01;15.80;97.70
46488;DHT22;32202;48.780;9.204;2023-05-07T00:32:27;15.80;98.10
46488;DHT22;32202;48.780;9.204;2023-05-07T00:34:52;15.70;98.30
46488;DHT22;32202;48.780;9.204;2023-05-07T00:37:18;15.70;98.90
46488;DHT22;32202;48.780;9.204;2023-05-07T00:39:43;15.60;99.30
46488;DHT22;32202;48.780;9.204;2023-05-07T00:42:09;15.60;99.40
46488;DHT22;32202;48.780;9.204;2023-05-07T00:44:34;15.60;99.50
46488;DHT22;32202;48.780;9.204;2023-05-07T00:47:01;15.60;99.70
46488;DHT22;32202;48.780;9.204;2023-05-07T00:49:28;15.60;99.90
46488;DHT22;32202;48.780;9.204;2023-05-07T00:51:56;15.50;99.90
46488;DHT22;32202;48.780;9.204;2023-05-07T00:54:23;15.60;99.90
46488;DHT22;32202;48.780;9.204;2023-05-07T00:56:48;15.60;99.90
46488;DHT22;32202;48.780;9.204;2023-05-07T00:59:13;15.50;99.90
46488;DHT22;32202;48.780;9.204;2023-05-07T01:01:39;15.50;99.90
46488;DHT22;32202;48.780;9.204;2023-05-07T01:04:05;15.50;99.90
46488;DHT22;32202;48.780;9.204;2023-05-07T01:06:30;15.40;99.90
46488;DHT22;32202;48.780;9.204;2023-05-07T01:08:57;15.40;99.90
46488;DHT22;32202;48.780;9.204;2023-05-07T01:11:23;15.30;99.90
46488;DHT22;32202;48.780;9.204;2023-05-07T01:13:48;15.30;99.90
46488;DHT22;32202;48.780;9.204;2023-05-07T01:16:14;15.30;99.90
46488;DHT22;32202;48.780;9.204;2023-05-07T01:18:40;15.30;99.90
46488;DHT22;32202;48.780;9.204;2023-05-07T01:21:05;15.30;99.90
46488;DHT22;32202;48.780;9.204;2023-05-07T01:23:32;15.20;99.90
46488;DHT22;32202;48.780;9.204;2023-05-07T01:25:58;15.30;99.90
46488;DHT22;32202;48.780;9.204;2023-05-07T01:28:24;15.30;99.90
46488;DHT22;32202;48.780;9.204;2023-05-07T01:30:51;15.20;99.90
46488;DHT22;32202;48.780;9.204;2023-05-07T01:33:19;15.20;99.90
46488;DHT22;32202;48.780;9.204;2023-05-07T01:35:46;15.20;99.90
46488;DHT22;32202;48.780;9.204;2023-05-07T01:38:12;15.20;99.90
46488;DHT22;32202;48.780;9.204;2023-05-07T01:40:38;15.20;99.90
46488;DHT22;32202;48.780;9.204;2023-05-07T01:43:03;15.10;99.90
46488;DHT22;32202;48.780;9.204;2023-05-07T01:45:30;15.10;99.90
46488;DHT22;32202;48.780;9.204;2023-05-07T01:47:57;15.10;99.90
46488;DHT22;32202;48.780;9.204;2023-05-07T01:50:23;15.10;99.90
46488;DHT22;32202;48.780;9.204;2023-05-07T01:52:50;15.10;99.90
46488;DHT22;32202;48.780;9.204;2023-05-07T01:55:16;15.00;99.90
46488;DHT22;32202;48.780;9.204;2023-05-07T01:57:41;15.00;99.90
46488;DHT22;32202;48.780;9.204;2023-05-07T02:00:07;15.00;99.90
46488;DHT22;32202;48.780;9.204;2023-05-07T02:02:33;14.90;99.90
46488;DHT22;32202;48.780;9.204;2023-05-07T02:04:59;14.90;99.90
46488;DHT22;32202;48.780;9.204;2023-05-07T02:07:25;14.80;99.90
46488;DHT22;32202;48.780;9.204;2023-05-07T02:09:50;14.80;99.90
46488;DHT22;32202;48.780;9.204;2023-05-07T02:12:15;14.80;99.90
46488;DHT22;32202;48.780;9.204;2023-05-07T02:14:41;14.70;99.90
46488;DHT22;32202;48.780;9.204;2023-05-07T02:17:07;14.70;99.90
46488;DHT22;32202;48.780;9.204;2023-05-07T02:19:32;14.70;99.90
46488;DHT22;32202;48.780;9.204;2023-05-07T02:21:58;14.70;99.90
46488;DHT22;32202;48.780;9.204;2023-05-07T02:24:23;14.60;99.90
46488;DHT22;32202;48.780;9.204;2023-05-07T02:26:49;14.60;99.90
46488;DHT22;32202;48.780;9.204;2023-05-07T02:29:14;14.60;99.90
46488;DHT22;32202;48.780;9.204;2023-05-07T02:31:40;14.60;99.90
46488;DHT22;32202;48.780;9.204;2023-05-07T02:34:05;14.60;99.90
46488;DHT22;32202;48.780;9.204;2023-05-07T02:36:31;14.60;99.90
46488;DHT22;32202;48.780;9.204;2023-05-07T02:38:56;14.60;99.90
46488;DHT22;32202;48.780;9.204;2023-05-07T02:41:22;14.60;99.90
46488;DHT22;32202;48.780;9.204;2023-05-07T02:43:47;14.60;99.90
46488;DHT22;32202;48.780;9.204;2023-05-07T02:46:13;14.50;99.90
46488;DHT22;32202;48.780;9.204;2023-05-07T02:48:38;14.50;99.90
46488;DHT22;32202;48.780;9.204;2023-05-07T02:51:04;14.40;99.90
46488;DHT22;32202;48.780;9.204;2023-05-07T02:53:30;14.40;99.90
46488;DHT22;32202;48.780;9.204;2023-05-07T02:55:57;14.30;99.90
46488;DHT22;32202;48.780;9.204;2023-05-07T02:58:22;14.20;99.90
46488;DHT22;32202;48.780;9.204;2023-05-07T03:00:48;14.20;99.90
46488;DHT22;32202;48.780;9.204;2023-05-07T03:03:14;14.20;99.90
46488;DHT22;32202;48.780;9.204;2023-05-07T03:05:39;14.10;99.90
46488;DHT22;32202;48.780;9.204;2023-05-07T03:08:05;14.10;99.90
46488;DHT22;32202;48.780;9.204;2023-05-07T03:10:30;14.00;99.90
46488;DHT22;32202;48.780;9.204;2023-05-07T03:12:56;14.00;99.90
46488;DHT22;32202;48.780;9.204;2023-05-07T03:15:21;14.00;99.90
46488;DHT22;32202;48.780;9.204;2023-05-07T03:17:50;14.00;99.90
46488;DHT22;32202;48.780;9.204;2023-05-07T03:20:15;14.00;99.90
46488;DHT22;32202;48.780;9.204;2023-05-07T03:22:41;14.00;99.90
46488;DHT22;32202;48.780;9.204;2023-05-07T03:25:06;13.90;99.90
46488;DHT22;32202;48.780;9.204;2023-05-07T03:27:32;13.90;99.90
46488;DHT22;32202;48.780;9.204;2023-05-07T03:29:58;13.80;99.90
46488;DHT22;32202;48.780;9.204;2023-05-07T03:32:23;13.80;99.90
46488;DHT22;32202;48.780;9.204;2023-05-07T03:34:49;13.70;99.90
46488;DHT22;32202;48.780;9.204;2023-05-07T03:37:14;13.70;99.90
46488;DHT22;32202;48.780;9.204;2023-05-07T03:39:40;13.60;99.90
46488;DHT22;32202;48.780;9.204;2023-05-07T03:42:05;13.60;99.90
46488;DHT22;32202;48.780;9.204;2023-05-07T03:44:31;13.60;99.90
46488;DHT22;32202;48.780;9.204;2023-05-07T03:46:56;13.60;99.90
46488;DHT22;32202;48.780;9.204;2023-05-07T03:49:22;13.60;99.90
46488;DHT22;32202;48.780;9.204;2023-05-07T03:51:47;13.60;99.90
46488;DHT22;32202;48.780;9.204;2023-05-07T03:54:12;13.60;99.90
46488;DHT22;32202;48.780;9.204;2023-05-07T03:56:38;13.60;99.90
46488;DHT22;32202;48.780;9.204;2023-05-07T03:59:03;13.70;99.90
46488;DHT22;32202;48.780;9.204;2023-05-07T04:01:29;13.70;99.90
46488;DHT22;32202;48.780;9.204;2023-05-07T04:03:55;13.70;99.90
46488;DHT22;32202;48.780;9.204;2023-05-07T04:06:20;13.70;99.90
46488;DHT22;32202;48.780;9.204;2023-05-07T04:08:46;13.70;99.90
46488;DHT22;32202;48.780;9.204;2023-05-07T04:11:11;13.60;99.90
46488;DHT22;32202;48.780;9.204;2023-05-07T04:13:37;13.60;99.90
46488;DHT22;32202;48.780;9.204;2023-05-07T04:16:03;13.60;99.90
46488;DHT22;32202;48.780;9.204;2023-05-07T04:18:29;13.60;99.90
46488;DHT22;32202;48.780;9.204;2023-05-07T04:20:54;13.60;99.90
46488;DHT22;32202;48.780;9.204;2023-05-07T04:23:20;13.60;99.90
46488;DHT22;32202;48.780;9.204;2023-05-07T04:25:45;13.60;99.90
46488;DHT22;32202;48.780;9.204;2023-05-07T04:28:11;13.60;99.90
46488;DHT22;32202;48.780;9.204;2023-05-07T04:30:37;13.70;99.90
46488;DHT22;32202;48.780;9.204;2023-05-07T04:33:03;13.80;99.90
46488;DHT22;32202;48.780;9.204;2023-05-07T04:35:29;13.70;99.90
46488;DHT22;32202;48.780;9.204;2023-05-07T04:37:54;13.80;99.90
46488;DHT22;32202;48.780;9.204;2023-05-07T04:40:20;13.90;99.90
46488;DHT22;32202;48.780;9.204;2023-05-07T04:42:45;13.90;99.90
46488;DHT22;32202;48.780;9.204;2023-05-07T04:45:11;13.90;99.90
46488;DHT22;32202;48.780;9.204;2023-05-07T04:47:37;13.90;99.90
46488;DHT22;32202;48.780;9.204;2023-05-07T04:50:03;14.00;99.90
46488;DHT22;32202;48.780;9.204;2023-05-07T04:52:28;14.00;99.90
46488;DHT22;32202;48.780;9.204;2023-05-07T04:54:54;14.00;99.90
46488;DHT22;32202;48.780;9.204;2023-05-07T04:57:19;14.10;99.90
46488;DHT22;32202;48.780;9.204;2023-05-07T04:59:45;14.10;99.90
46488;DHT22;32202;48.780;9.204;2023-05-07T05:02:10;14.00;99.90
46488;DHT22;32202;48.780;9.204;2023-05-07T05:04:36;14.10;99.90
46488;DHT22;32202;48.780;9.204;2023-05-07T05:07:02;14.00;99.90
46488;DHT22;32202;48.780;9.204;2023-05-07T05:09:28;14.00;99.90
46488;DHT22;32202;48.780;9.204;2023-05-07T05:11:54;14.00;99.90
46488;DHT22;32202;48.780;9.204;2023-05-07T05:14:19;14.10;99.90
46488;DHT22;32202;48.780;9.204;2023-05-07T05:16:45;14.10;99.90
46488;DHT22;32202;48.780;9.204;2023-05-07T05:19:10;14.20;99.90
46488;DHT22;32202;48.780;9.204;2023-05-07T05:21:36;14.20;99.90
46488;DHT22;32202;48.780;9.204;2023-05-07T05:24:01;14.30;99.90
46488;DHT22;32202;48.780;9.204;2023-05-07T05:26:27;14.40;99.90
46488;DHT22;32202;48.780;9.204;2023-05-07T05:28:52;14.60;99.90
46488;DHT22;32202;48.780;9.204;2023-05-07T05:31:18;15.10;99.90
46488;DHT22;32202;48.780;9.204;2023-05-07T05:33:43;15.80;99.90
46488;DHT22;32202;48.780;9.204;2023-05-07T05:36:09;16.90;99.40
46488;DHT22;32202;48.780;9.204;2023-05-07T05:38:35;17.90;93.90
46488;DHT22;32202;48.780;9.204;2023-05-07T05:41:00;18.60;91.40
46488;DHT22;32202;48.780;9.204;2023-05-07T05:43:25;19.20;87.80
46488;DHT22;32202;48.780;9.204;2023-05-07T05:45:51;20.00;82.00
46488;DHT22;32202;48.780;9.204;2023-05-07T05:48:16;21.00;76.50
46488;DHT22;32202;48.780;9.204;2023-05-07T05:50:42;21.80;72.20
46488;DHT22;32202;48.780;9.204;2023-05-07T05:53:07;22.10;70.10
46488;DHT22;32202;48.780;9.204;2023-05-07T05:55:33;22.20;69.20
46488;DHT22;32202;48.780;9.204;2023-05-07T05:57:59;22.20;67.70
46488;DHT22;32202;48.780;9.204;2023-05-07T06:00:25;21.60;69.00
46488;DHT22;32202;48.780;9.204;2023-05-07T06:02:50;21.20;70.60
46488;DHT22;32202;48.780;9.204;2023-05-07T06:05:16;20.80;72.70
46488;DHT22;32202;48.780;9.204;2023-05-07T06:07:41;21.10;72.90
46488;DHT22;32202;48.780;9.204;2023-05-07T06:10:07;21.90;71.10
46488;DHT22;32202;48.780;9.204;2023-05-07T06:12:32;22.80;67.90
46488;DHT22;32202;48.780;9.204;2023-05-07T06:14:58;23.90;64.20
46488;DHT22;32202;48.780;9.204;2023-05-07T06:17:23;25.00;60.30
46488;DHT22;32202;48.780;9.204;2023-05-07T06:19:49;24.80;59.40
46488;DHT22;32202;48.780;9.204;2023-05-07T06:22:14;25.00;58.80
46488;DHT22;32202;48.780;9.204;2023-05-07T06:24:40;24.60;58.80
46488;DHT22;32202;48.780;9.204;2023-05-07T06:27:05;23.80;60.40
46488;DHT22;32202;48.780;9.204;2023-05-07T06:29:31;23.00;62.90
46488;DHT22;32202;48.780;9.204;2023-05-07T06:32:05;22.40;64.80
46488;DHT22;32202;48.780;9.204;2023-05-07T06:34:31;21.90;66.00
46488;DHT22;32202;48.780;9.204;2023-05-07T06:36:56;21.40;68.00
46488;DHT22;32202;48.780;9.204;2023-05-07T06:39:22;21.40;68.30
46488;DHT22;32202;48.780;9.204;2023-05-07T06:41:47;21.60;68.20
46488;DHT22;32202;48.780;9.204;2023-05-07T06:44:13;22.50;66.30
46488;DHT22;32202;48.780;9.204;2023-05-07T06:46:38;23.50;62.40
46488;DHT22;32202;48.780;9.204;2023-05-07T06:49:04;24.30;60.70
46488;DHT22;32202;48.780;9.204;2023-05-07T06:51:29;24.60;59.30
46488;DHT22;32202;48.780;9.204;2023-05-07T06:53:55;25.20;58.40
46488;DHT22;32202;48.780;9.204;2023-05-07T06:56:20;25.90;57.00
46488;DHT22;32202;48.780;9.204;2023-05-07T06:58:46;27.50;53.90
46488;DHT22;32202;48.780;9.204;2023-05-07T07:01:11;29.00;51.20
46488;DHT22;32202;48.780;9.204;2023-05-07T07:03:37;30.30;48.50
46488;DHT22;32202;48.780;9.204;2023-05-07T07:06:02;31.40;46.50
46488;DHT22;32202;48.780;9.204;2023-05-07T07:08:28;32.40;44.80
46488;DHT22;32202;48.780;9.204;2023-05-07T07:10:53;33.10;43.90
46488;DHT22;32202;48.780;9.204;2023-05-07T07:13:19;33.90;42.90
46488;DHT22;32202;48.780;9.204;2023-05-07T07:15:44;34.40;41.70
46488;DHT22;32202;48.780;9.204;2023-05-07T07:18:10;34.50;41.20
46488;DHT22;32202;48.780;9.204;2023-05-07T07:20:36;34.00;41.70
46488;DHT22;32202;48.780;9.204;2023-05-07T07:23:01;34.80;41.10
46488;DHT22;32202;48.780;9.204;2023-05-07T07:25:27;34.70;40.80
46488;DHT22;32202;48.780;9.204;2023-05-07T07:27:52;34.60;40.80
46488;DHT22;32202;48.780;9.204;2023-05-07T07:30:18;35.00;40.40
46488;DHT22;32202;48.780;9.204;2023-05-07T07:32:43;36.10;39.30
46488;DHT22;32202;48.780;9.204;2023-05-07T07:35:09;35.80;39.40
46488;DHT22;32202;48.780;9.204;2023-05-07T07:37:34;36.50;38.70
46488;DHT22;32202;48.780;9.204;2023-05-07T07:40:00;37.10;38.30
46488;DHT22;32202;48.780;9.204;2023-05-07T07:42:25;36.80;38.10
46488;DHT22;32202;48.780;9.204;2023-05-07T07:44:50;36.20;38.90
46488;DHT22;32202;48.780;9.204;2023-05-07T07:47:16;36.40;39.00
46488;DHT22;32202;48.780;9.204;2023-05-07T07:49:41;36.80;38.60
46488;DHT22;32202;48.780;9.204;2023-05-07T07:52:07;36.70;38.50
46488;DHT22;32202;48.780;9.204;2023-05-07T07:54:32;37.40;37.40
46488;DHT22;32202;48.780;9.204;2023-05-07T07:56:58;37.20;37.50
46488;DHT22;32202;48.780;9.204;2023-05-07T07:59:23;37.10;37.70
46488;DHT22;32202;48.780;9.204;2023-05-07T08:01:49;36.70;38.10
46488;DHT22;32202;48.780;9.204;2023-05-07T08:04:15;35.70;38.60
46488;DHT22;32202;48.780;9.204;2023-05-07T08:06:41;34.10;40.00
46488;DHT22;32202;48.780;9.204;2023-05-07T08:09:06;33.30;41.00
46488;DHT22;32202;48.780;9.204;2023-05-07T08:11:34;32.00;42.90
46488;DHT22;32202;48.780;9.204;2023-05-07T08:14:00;32.10;42.60
46488;DHT22;32202;48.780;9.204;2023-05-07T08:16:25;32.10;42.30
46488;DHT22;32202;48.780;9.204;2023-05-07T08:18:51;32.10;42.70
46488;DHT22;32202;48.780;9.204;2023-05-07T08:21:17;32.00;42.40
46488;DHT22;32202;48.780;9.204;2023-05-07T08:23:42;32.10;42.40
46488;DHT22;32202;48.780;9.204;2023-05-07T08:26:08;32.50;42.10
46488;DHT22;32202;48.780;9.204;2023-05-07T08:28:33;33.10;42.00
46488;DHT22;32202;48.780;9.204;2023-05-07T08:30:59;33.60;41.20
46488;DHT22;32202;48.780;9.204;2023-05-07T08:33:26;34.80;40.70
46488;DHT22;32202;48.780;9.204;2023-05-07T08:35:51;35.70;39.10
46488;DHT22;32202;48.780;9.204;2023-05-07T08:38:17;37.20;37.70
46488;DHT22;32202;48.780;9.204;2023-05-07T08:40:42;37.00;37.90
46488;DHT22;32202;48.780;9.204;2023-05-07T08:43:08;36.30;38.40
46488;DHT22;32202;48.780;9.204;2023-05-07T08:45:36;35.50;38.80
46488;DHT22;32202;48.780;9.204;2023-05-07T08:48:05;36.00;38.60
46488;DHT22;32202;48.780;9.204;2023-05-07T08:50:35;36.40;38.40
46488;DHT22;32202;48.780;9.204;2023-05-07T08:53:02;36.30;37.70
46488;DHT22;32202;48.780;9.204;2023-05-07T08:55:28;35.90;38.50
46488;DHT22;32202;48.780;9.204;2023-05-07T08:57:54;37.10;37.90
46488;DHT22;32202;48.780;9.204;2023-05-07T09:00:19;38.40;37.00
46488;DHT22;32202;48.780;9.204;2023-05-07T09:02:44;38.80;36.00
46488;DHT22;32202;48.780;9.204;2023-05-07T09:05:10;37.60;36.30
46488;DHT22;32202;48.780;9.204;2023-05-07T09:07:36;38.10;36.30
46488;DHT22;32202;48.780;9.204;2023-05-07T09:10:04;38.40;35.80
46488;DHT22;32202;48.780;9.204;2023-05-07T09:12:30;39.60;35.40
46488;DHT22;32202;48.780;9.204;2023-05-07T09:14:56;40.40;35.00
46488;DHT22;32202;48.780;9.204;2023-05-07T09:17:22;39.50;35.20
46488;DHT22;32202;48.780;9.204;2023-05-07T09:19:47;39.50;35.90
46488;DHT22;32202;48.780;9.204;2023-05-07T09:22:13;39.50;34.90
46488;DHT22;32202;48.780;9.204;2023-05-07T09:24:38;37.40;36.40
46488;DHT22;32202;48.780;9.204;2023-05-07T09:27:05;36.00;37.90
46488;DHT22;32202;48.780;9.204;2023-05-07T09:29:30;35.80;38.10
46488;DHT22;32202;48.780;9.204;2023-05-07T09:32:01;37.00;37.70
46488;DHT22;32202;48.780;9.204;2023-05-07T09:34:27;38.50;36.30
46488;DHT22;32202;48.780;9.204;2023-05-07T09:36:53;39.80;35.20
46488;DHT22;32202;48.780;9.204;2023-05-07T09:39:19;39.80;34.70
46488;DHT22;32202;48.780;9.204;2023-05-07T09:41:45;41.80;34.30
46488;DHT22;32202;48.780;9.204;2023-05-07T09:44:10;40.40;34.70
46488;DHT22;32202;48.780;9.204;2023-05-07T09:46:36;42.00;34.10
46488;DHT22;32202;48.780;9.204;2023-05-07T09:49:02;43.20;33.40
46488;DHT22;32202;48.780;9.204;2023-05-07T09:51:36;44.50;32.60
46488;DHT22;32202;48.780;9.204;2023-05-07T09:54:04;44.60;32.50
46488;DHT22;32202;48.780;9.204;2023-05-07T09:56:30;43.60;31.70
46488;DHT22;32202;48.780;9.204;2023-05-07T09:59:00;43.10;32.00
46488;DHT22;32202;48.780;9.204;2023-05-07T10:01:25;43.20;32.30
46488;DHT22;32202;48.780;9.204;2023-05-07T10:03:52;43.80;32.10
46488;DHT22;32202;48.780;9.204;2023-05-07T10:06:19;43.00;32.20
46488;DHT22;32202;48.780;9.204;2023-05-07T10:08:48;42.10;32.40
46488;DHT22;32202;48.780;9.204;2023-05-07T10:11:14;41.30;32.80
46488;DHT22;32202;48.780;9.204;2023-05-07T10:13:41;40.50;33.50
46488;DHT22;32202;48.780;9.204;2023-05-07T10:16:06;40.20;33.90
46488;DHT22;32202;48.780;9.204;2023-05-07T10:18:32;39.60;34.20
46488;DHT22;32202;48.780;9.204;2023-05-07T10:21:00;38.40;35.20
46488;DHT22;32202;48.780;9.204;2023-05-07T10:23:27;37.50;35.90
46488;DHT22;32202;48.780;9.204;2023-05-07T10:25:52;38.50;35.30
46488;DHT22;32202;48.780;9.204;2023-05-07T10:28:19;39.30;34.60
46488;DHT22;32202;48.780;9.204;2023-05-07T10:33:13;41.50;33.30
46488;DHT22;32202;48.780;9.204;2023-05-07T10:35:44;42.70;32.80
46488;DHT22;32202;48.780;9.204;2023-05-07T10:38:10;43.20;33.00
46488;DHT22;32202;48.780;9.204;2023-05-07T10:40:36;43.70;32.40
46488;DHT22;32202;48.780;9.204;2023-05-07T10:43:02;43.20;32.30
46488;DHT22;32202;48.780;9.204;2023-05-07T10:45:30;44.60;31.90
46488;DHT22;32202;48.780;9.204;2023-05-07T10:48:05;44.40;31.60
46488;DHT22;32202;48.780;9.204;2023-05-07T10:50:31;44.30;31.60
46488;DHT22;32202;48.780;9.204;2023-05-07T10:55:41;41.60;32.10
46488;DHT22;32202;48.780;9.204;2023-05-07T10:58:25;39.80;33.40
46488;DHT22;32202;48.780;9.204;2023-05-07T11:03:18;36.50;35.40
46488;DHT22;32202;48.780;9.204;2023-05-07T11:05:43;35.50;35.90
46488;DHT22;32202;48.780;9.204;2023-05-07T11:08:09;35.50;36.60
46488;DHT22;32202;48.780;9.204;2023-05-07T11:10:56;36.60;35.40
46488;DHT22;32202;48.780;9.204;2023-05-07T11:13:43;35.70;36.00
46488;DHT22;32202;48.780;9.204;2023-05-07T11:16:18;35.20;36.50
46488;DHT22;32202;48.780;9.204;2023-05-07T11:18:52;36.80;34.80
46488;DHT22;32202;48.780;9.204;2023-05-07T11:24:02;39.80;33.50
46488;DHT22;32202;48.780;9.204;2023-05-07T11:26:29;40.70;33.20
46488;DHT22;32202;48.780;9.204;2023-05-07T11:28:56;40.50;33.00
46488;DHT22;32202;48.780;9.204;2023-05-07T11:31:25;40.40;33.30
46488;DHT22;32202;48.780;9.204;2023-05-07T11:33:51;40.10;33.50
46488;DHT22;32202;48.780;9.204;2023-05-07T11:36:17;39.50;32.80
46488;DHT22;32202;48.780;9.204;2023-05-07T11:38:43;37.90;33.90
46488;DHT22;32202;48.780;9.204;2023-05-07T11:41:08;36.90;36.20
46488;DHT22;32202;48.780;9.204;2023-05-07T11:43:34;35.80;37.30
46488;DHT22;32202;48.780;9.204;2023-05-07T11:46:10;34.80;38.30
46488;DHT22;32202;48.780;9.204;2023-05-07T11:48:36;33.70;39.40
46488;DHT22;32202;48.780;9.204;2023-05-07T11:51:02;33.20;40.10
46488;DHT22;32202;48.780;9.204;2023-05-07T11:53:34;32.00;41.20
46488;DHT22;32202;48.780;9.204;2023-05-07T11:56:00;31.50;42.00
46488;DHT22;32202;48.780;9.204;2023-05-07T11:58:26;30.90;42.40
46488;DHT22;32202;48.780;9.204;2023-05-07T12:00:52;30.40;42.80
46488;DHT22;32202;48.780;9.204;2023-05-07T12:03:18;30.10;43.30
46488;DHT22;32202;48.780;9.204;2023-05-07T12:05:47;29.80;43.50
46488;DHT22;32202;48.780;9.204;2023-05-07T12:08:15;29.50;43.80
46488;DHT22;32202;48.780;9.204;2023-05-07T12:10:41;29.20;44.30
46488;DHT22;32202;48.780;9.204;2023-05-07T12:13:23;28.90;44.60
46488;DHT22;32202;48.780;9.204;2023-05-07T12:15:53;28.50;45.50
46488;DHT22;32202;48.780;9.204;2023-05-07T12:18:19;28.20;45.90
46488;DHT22;32202;48.780;9.204;2023-05-07T12:20:44;27.90;46.00
46488;DHT22;32202;48.780;9.204;2023-05-07T12:23:10;27.70;46.40
46488;DHT22;32202;48.780;9.204;2023-05-07T12:25:39;27.40;47.80
46488;DHT22;32202;48.780;9.204;2023-05-07T12:28:07;27.10;53.80
46488;DHT22;32202;48.780;9.204;2023-05-07T12:30:39;26.70;58.20
46488;DHT22;32202;48.780;9.204;2023-05-07T12:33:05;26.40;60.00
46488;DHT22;32202;48.780;9.204;2023-05-07T12:35:31;26.10;61.80
46488;DHT22;32202;48.780;9.204;2023-05-07T12:37:57;25.70;62.50
46488;DHT22;32202;48.780;9.204;2023-05-07T12:40:25;24.20;65.20
46488;DHT22;32202;48.780;9.204;2023-05-07T12:43:00;24.00;63.40
46488;DHT22;32202;48.780;9.204;2023-05-07T12:45:25;23.80;65.20
46488;DHT22;32202;48.780;9.204;2023-05-07T12:47:51;23.60;68.40
46488;DHT22;32202;48.780;9.204;2023-05-07T12:50:16;23.50;66.00
46488;DHT22;32202;48.780;9.204;2023-05-07T12:52:43;23.00;69.00
46488;DHT22;32202;48.780;9.204;2023-05-07T12:55:08;22.50;71.00
46488;DHT22;32202;48.780;9.204;2023-05-07T12:57:37;21.80;71.40
46488;DHT22;32202;48.780;9.204;2023-05-07T13:00:03;21.40;71.90
46488;DHT22;32202;48.780;9.204;2023-05-07T13:02:33;21.20;76.10
46488;DHT22;32202;48.780;9.204;2023-05-07T13:04:59;21.20;77.00
46488;DHT22;32202;48.780;9.204;2023-05-07T13:07:25;21.20;67.50
46488;DHT22;32202;48.780;9.204;2023-05-07T13:09:50;21.20;72.80
46488;DHT22;32202;48.780;9.204;2023-05-07T13:12:16;21.20;79.50
46488;DHT22;32202;48.780;9.204;2023-05-07T13:14:41;21.20;78.50
46488;DHT22;32202;48.780;9.204;2023-05-07T13:17:07;21.10;76.40
46488;DHT22;32202;48.780;9.204;2023-05-07T13:19:32;20.20;83.00
46488;DHT22;32202;48.780;9.204;2023-05-07T13:21:58;19.00;92.90
46488;DHT22;32202;48.780;9.204;2023-05-07T13:24:23;18.20;98.80
46488;DHT22;32202;48.780;9.204;2023-05-07T13:26:48;18.00;99.90
46488;DHT22;32202;48.780;9.204;2023-05-07T13:29:14;17.80;99.90
46488;DHT22;32202;48.780;9.204;2023-05-07T13:31:39;17.80;99.90
46488;DHT22;32202;48.780;9.204;2023-05-07T13:34:09;17.80;99.90
46488;DHT22;32202;48.780;9.204;2023-05-07T13:36:34;17.80;99.90
46488;DHT22;32202;48.780;9.204;2023-05-07T13:39:02;17.60;98.40
46488;DHT22;32202;48.780;9.204;2023-05-07T13:41:28;17.70;98.10
46488;DHT22;32202;48.780;9.204;2023-05-07T13:43:55;18.00;96.60
46488;DHT22;32202;48.780;9.204;2023-05-07T13:46:21;18.00;97.50
46488;DHT22;32202;48.780;9.204;2023-05-07T13:48:47;17.90;97.50
46488;DHT22;32202;48.780;9.204;2023-05-07T13:51:12;17.70;97.60
46488;DHT22;32202;48.780;9.204;2023-05-07T13:53:38;17.80;96.00
46488;DHT22;32202;48.780;9.204;2023-05-07T13:56:03;18.00;99.90
46488;DHT22;32202;48.780;9.204;2023-05-07T13:58:30;18.20;99.90
46488;DHT22;32202;48.780;9.204;2023-05-07T14:00:55;18.50;99.90
46488;DHT22;32202;48.780;9.204;2023-05-07T14:03:21;18.50;99.90
46488;DHT22;32202;48.780;9.204;2023-05-07T14:05:46;18.10;99.60
46488;DHT22;32202;48.780;9.204;2023-05-07T14:08:12;17.90;99.90
46488;DHT22;32202;48.780;9.204;2023-05-07T14:10:39;18.10;99.40
46488;DHT22;32202;48.780;9.204;2023-05-07T14:13:05;18.10;99.90
46488;DHT22;32202;48.780;9.204;2023-05-07T14:15:30;18.20;99.10
46488;DHT22;32202;48.780;9.204;2023-05-07T14:17:58;18.30;99.70
46488;DHT22;32202;48.780;9.204;2023-05-07T14:20:24;18.30;99.80
46488;DHT22;32202;48.780;9.204;2023-05-07T14:22:50;18.30;99.70
46488;DHT22;32202;48.780;9.204;2023-05-07T14:25:15;18.30;99.10
46488;DHT22;32202;48.780;9.204;2023-05-07T14:27:41;18.30;98.40
46488;DHT22;32202;48.780;9.204;2023-05-07T14:30:06;18.20;99.20
46488;DHT22;32202;48.780;9.204;2023-05-07T14:32:32;18.20;98.80
46488;DHT22;32202;48.780;9.204;2023-05-07T14:34:58;18.20;98.80
46488;DHT22;32202;48.780;9.204;2023-05-07T14:37:23;18.10;98.60
46488;DHT22;32202;48.780;9.204;2023-05-07T14:39:49;18.10;99.00
46488;DHT22;32202;48.780;9.204;2023-05-07T14:42:14;18.10;99.70
46488;DHT22;32202;48.780;9.204;2023-05-07T14:44:40;18.10;99.80
46488;DHT22;32202;48.780;9.204;2023-05-07T14:47:06;18.20;99.90
46488;DHT22;32202;48.780;9.204;2023-05-07T14:49:32;18.20;99.90
46488;DHT22;32202;48.780;9.204;2023-05-07T14:51:58;18.10;99.90
46488;DHT22;32202;48.780;9.204;2023-05-07T14:54:25;18.30;99.90
46488;DHT22;32202;48.780;9.204;2023-05-07T14:56:50;18.40;99.90
46488;DHT22;32202;48.780;9.204;2023-05-07T14:59:16;18.60;99.90
46488;DHT22;32202;48.780;9.204;2023-05-07T15:01:44;18.70;99.90
46488;DHT22;32202;48.780;9.204;2023-05-07T15:04:10;18.70;99.90
46488;DHT22;32202;48.780;9.204;2023-05-07T15:06:36;18.80;99.90
46488;DHT22;32202;48.780;9.204;2023-05-07T15:09:02;18.90;99.90
46488;DHT22;32202;48.780;9.204;2023-05-07T15:11:28;19.00;99.90
46488;DHT22;32202;48.780;9.204;2023-05-07T15:13:54;19.00;99.90
46488;DHT22;32202;48.780;9.204;2023-05-07T15:16:20;19.00;99.90
46488;DHT22;32202;48.780;9.204;2023-05-07T15:18:45;19.00;99.90
46488;DHT22;32202;48.780;9.204;2023-05-07T15:21:11;19.10;99.90
46488;DHT22;32202;48.780;9.204;2023-05-07T15:23:36;19.20;99.90
46488;DHT22;32202;48.780;9.204;2023-05-07T15:26:02;19.40;99.90
46488;DHT22;32202;48.780;9.204;2023-05-07T15:28:27;19.40;99.90
46488;DHT22;32202;48.780;9.204;2023-05-07T15:30:56;19.40;99.90
46488;DHT22;32202;48.780;9.204;2023-05-07T15:33:22;19.50;99.90